Terminal Aerodrome Forecast
Issued by NWS Quad Cities IA IL

Home | Current Version | Previous Version | Text Only | Print | Product List | Glossary On
Versions: 1 2 3 4 5 6 7 8 9 10 11 12 13 14 15 16 17 18 19 20 21 22 23 24 25 26
000
FTUS43 KDVN 300520
TAFDBQ
TAF
KDBQ 300520Z 3006/0106 VRB03KT 6SM BR SCT080
     FM300800 VRB02KT 3SM BR SCT005
      TEMPO 3008/3012 1SM BR BKN005
     FM301400 35010KT P6SM BKN050
     FM010100 36004KT P6SM SCT150=

USA.gov is the U.S. government's official web portal to all federal, state and local government web resources and services.